sensor_id;sensor_type;location;lat;lon;timestamp;P1;durP1;ratioP1;P2;durP2;ratioP2
5971;SDS011;3012;49.944;8.454;2023-08-30T00:00:59;4.45;;;2.45;;
5971;SDS011;3012;49.944;8.454;2023-08-30T00:03:29;1.42;;;1.33;;
5971;SDS011;3012;49.944;8.454;2023-08-30T00:06:01;2.30;;;1.60;;
5971;SDS011;3012;49.944;8.454;2023-08-30T00:08:30;8.70;;;1.77;;
5971;SDS011;3012;49.944;8.454;2023-08-30T00:10:58;4.25;;;2.13;;
5971;SDS011;3012;49.944;8.454;2023-08-30T00:13:29;2.40;;;2.30;;
5971;SDS011;3012;49.944;8.454;2023-08-30T00:15:57;1.75;;;1.63;;
5971;SDS011;3012;49.944;8.454;2023-08-30T00:18:25;2.47;;;2.28;;
5971;SDS011;3012;49.944;8.454;2023-08-30T00:20:54;2.20;;;2.10;;
5971;SDS011;3012;49.944;8.454;2023-08-30T00:23:23;2.28;;;2.17;;
5971;SDS011;3012;49.944;8.454;2023-08-30T00:25:51;6.50;;;2.40;;
5971;SDS011;3012;49.944;8.454;2023-08-30T00:28:19;3.15;;;1.80;;
5971;SDS011;3012;49.944;8.454;2023-08-30T00:30:52;2.03;;;1.95;;
5971;SDS011;3012;49.944;8.454;2023-08-30T00:33:21;2.15;;;2.05;;
5971;SDS011;3012;49.944;8.454;2023-08-30T00:35:56;3.83;;;2.17;;
5971;SDS011;3012;49.944;8.454;2023-08-30T00:38:25;2.50;;;2.22;;
5971;SDS011;3012;49.944;8.454;2023-08-30T00:40:54;2.53;;;2.35;;
5971;SDS011;3012;49.944;8.454;2023-08-30T00:43:22;5.40;;;2.63;;
5971;SDS011;3012;49.944;8.454;2023-08-30T00:45:50;2.45;;;2.35;;
5971;SDS011;3012;49.944;8.454;2023-08-30T00:48:19;2.63;;;2.42;;
5971;SDS011;3012;49.944;8.454;2023-08-30T00:50:48;4.20;;;2.67;;
5971;SDS011;3012;49.944;8.454;2023-08-30T00:53:17;2.63;;;2.45;;
5971;SDS011;3012;49.944;8.454;2023-08-30T00:55:45;5.75;;;2.85;;
5971;SDS011;3012;49.944;8.454;2023-08-30T00:58:13;2.92;;;2.72;;
5971;SDS011;3012;49.944;8.454;2023-08-30T01:00:41;2.47;;;2.20;;
5971;SDS011;3012;49.944;8.454;2023-08-30T01:03:09;5.93;;;3.08;;
5971;SDS011;3012;49.944;8.454;2023-08-30T01:05:37;3.63;;;2.53;;
5971;SDS011;3012;49.944;8.454;2023-08-30T01:08:05;8.65;;;2.63;;
5971;SDS011;3012;49.944;8.454;2023-08-30T01:10:41;3.60;;;2.50;;
5971;SDS011;3012;49.944;8.454;2023-08-30T01:13:18;2.30;;;2.30;;
5971;SDS011;3012;49.944;8.454;2023-08-30T01:15:48;2.67;;;2.53;;
5971;SDS011;3012;49.944;8.454;2023-08-30T01:18:18;3.13;;;2.75;;
5971;SDS011;3012;49.944;8.454;2023-08-30T01:20:48;2.17;;;2.08;;
5971;SDS011;3012;49.944;8.454;2023-08-30T01:23:23;2.38;;;2.28;;
5971;SDS011;3012;49.944;8.454;2023-08-30T01:26:01;5.68;;;2.47;;
5971;SDS011;3012;49.944;8.454;2023-08-30T01:28:34;2.95;;;2.42;;
5971;SDS011;3012;49.944;8.454;2023-08-30T01:31:04;3.28;;;2.97;;
5971;SDS011;3012;49.944;8.454;2023-08-30T01:33:35;3.38;;;3.05;;
5971;SDS011;3012;49.944;8.454;2023-08-30T01:36:04;3.30;;;3.00;;
5971;SDS011;3012;49.944;8.454;2023-08-30T01:38:33;5.18;;;2.28;;
5971;SDS011;3012;49.944;8.454;2023-08-30T01:41:02;4.28;;;2.38;;
5971;SDS011;3012;49.944;8.454;2023-08-30T01:43:31;2.20;;;2.15;;
5971;SDS011;3012;49.944;8.454;2023-08-30T01:46:03;2.53;;;2.50;;
5971;SDS011;3012;49.944;8.454;2023-08-30T01:48:33;6.45;;;2.83;;
5971;SDS011;3012;49.944;8.454;2023-08-30T01:51:03;3.33;;;2.55;;
5971;SDS011;3012;49.944;8.454;2023-08-30T01:53:32;4.88;;;2.70;;
5971;SDS011;3012;49.944;8.454;2023-08-30T01:56:00;4.35;;;2.40;;
5971;SDS011;3012;49.944;8.454;2023-08-30T01:58:28;3.95;;;2.35;;
5971;SDS011;3012;49.944;8.454;2023-08-30T02:00:58;2.70;;;2.50;;
5971;SDS011;3012;49.944;8.454;2023-08-30T02:03:28;2.50;;;2.40;;
5971;SDS011;3012;49.944;8.454;2023-08-30T02:05:58;3.38;;;2.70;;
5971;SDS011;3012;49.944;8.454;2023-08-30T02:08:34;2.70;;;2.40;;
5971;SDS011;3012;49.944;8.454;2023-08-30T02:11:07;2.75;;;2.47;;
5971;SDS011;3012;49.944;8.454;2023-08-30T02:13:38;2.72;;;2.58;;
5971;SDS011;3012;49.944;8.454;2023-08-30T02:16:09;3.20;;;2.35;;
5971;SDS011;3012;49.944;8.454;2023-08-30T02:18:40;6.05;;;2.90;;
5971;SDS011;3012;49.944;8.454;2023-08-30T02:21:08;4.82;;;2.50;;
5971;SDS011;3012;49.944;8.454;2023-08-30T02:23:37;3.20;;;3.00;;
5971;SDS011;3012;49.944;8.454;2023-08-30T02:26:05;3.78;;;3.00;;
5971;SDS011;3012;49.944;8.454;2023-08-30T02:28:33;3.05;;;2.67;;
5971;SDS011;3012;49.944;8.454;2023-08-30T02:31:01;8.95;;;3.42;;
5971;SDS011;3012;49.944;8.454;2023-08-30T02:33:30;7.53;;;3.10;;
5971;SDS011;3012;49.944;8.454;2023-08-30T02:35:58;6.07;;;3.17;;
5971;SDS011;3012;49.944;8.454;2023-08-30T02:38:26;4.00;;;3.03;;
5971;SDS011;3012;49.944;8.454;2023-08-30T02:40:54;3.22;;;3.03;;
5971;SDS011;3012;49.944;8.454;2023-08-30T02:43:22;9.63;;;3.75;;
5971;SDS011;3012;49.944;8.454;2023-08-30T02:45:51;4.40;;;3.88;;
5971;SDS011;3012;49.944;8.454;2023-08-30T02:48:20;4.38;;;3.20;;
5971;SDS011;3012;49.944;8.454;2023-08-30T02:50:49;4.50;;;3.33;;
5971;SDS011;3012;49.944;8.454;2023-08-30T02:53:17;3.60;;;3.40;;
5971;SDS011;3012;49.944;8.454;2023-08-30T02:55:46;4.03;;;3.72;;
5971;SDS011;3012;49.944;8.454;2023-08-30T02:58:14;4.15;;;3.90;;
5971;SDS011;3012;49.944;8.454;2023-08-30T03:00:42;4.05;;;3.75;;
5971;SDS011;3012;49.944;8.454;2023-08-30T03:03:10;4.18;;;3.88;;
5971;SDS011;3012;49.944;8.454;2023-08-30T03:05:38;4.55;;;4.25;;
5971;SDS011;3012;49.944;8.454;2023-08-30T03:08:07;5.25;;;3.75;;
5971;SDS011;3012;49.944;8.454;2023-08-30T03:10:36;3.55;;;3.35;;
5971;SDS011;3012;49.944;8.454;2023-08-30T03:13:04;4.93;;;3.83;;
5971;SDS011;3012;49.944;8.454;2023-08-30T03:15:32;3.70;;;3.40;;
5971;SDS011;3012;49.944;8.454;2023-08-30T03:18:00;4.65;;;4.35;;
5971;SDS011;3012;49.944;8.454;2023-08-30T03:20:29;4.50;;;3.33;;
5971;SDS011;3012;49.944;8.454;2023-08-30T03:22:57;3.90;;;3.60;;
5971;SDS011;3012;49.944;8.454;2023-08-30T03:25:29;3.20;;;3.03;;
5971;SDS011;3012;49.944;8.454;2023-08-30T03:27:57;4.05;;;3.35;;
5971;SDS011;3012;49.944;8.454;2023-08-30T03:30:25;3.40;;;3.10;;
5971;SDS011;3012;49.944;8.454;2023-08-30T03:32:54;3.08;;;2.88;;
5971;SDS011;3012;49.944;8.454;2023-08-30T03:35:22;3.30;;;3.10;;
5971;SDS011;3012;49.944;8.454;2023-08-30T03:37:49;4.82;;;3.20;;
5971;SDS011;3012;49.944;8.454;2023-08-30T03:40:17;3.17;;;2.95;;
5971;SDS011;3012;49.944;8.454;2023-08-30T03:42:47;4.25;;;2.92;;
5971;SDS011;3012;49.944;8.454;2023-08-30T03:45:15;3.20;;;2.90;;
5971;SDS011;3012;49.944;8.454;2023-08-30T03:47:43;4.13;;;3.17;;
5971;SDS011;3012;49.944;8.454;2023-08-30T03:50:11;3.35;;;3.15;;
5971;SDS011;3012;49.944;8.454;2023-08-30T03:52:38;3.65;;;3.45;;
5971;SDS011;3012;49.944;8.454;2023-08-30T03:55:07;6.40;;;4.13;;
5971;SDS011;3012;49.944;8.454;2023-08-30T03:57:35;4.00;;;3.67;;
5971;SDS011;3012;49.944;8.454;2023-08-30T04:00:04;7.90;;;4.45;;
5971;SDS011;3012;49.944;8.454;2023-08-30T04:02:33;6.20;;;4.25;;
5971;SDS011;3012;49.944;8.454;2023-08-30T04:05:01;3.65;;;3.38;;
5971;SDS011;3012;49.944;8.454;2023-08-30T04:07:31;5.18;;;4.78;;
5971;SDS011;3012;49.944;8.454;2023-08-30T04:09:58;4.97;;;4.25;;
5971;SDS011;3012;49.944;8.454;2023-08-30T04:12:28;5.57;;;5.05;;
5971;SDS011;3012;49.944;8.454;2023-08-30T04:14:56;4.90;;;4.50;;
5971;SDS011;3012;49.944;8.454;2023-08-30T04:17:26;4.75;;;4.35;;
5971;SDS011;3012;49.944;8.454;2023-08-30T04:19:54;6.35;;;5.20;;
5971;SDS011;3012;49.944;8.454;2023-08-30T04:22:22;6.43;;;5.30;;
5971;SDS011;3012;49.944;8.454;2023-08-30T04:24:50;5.25;;;4.85;;
5971;SDS011;3012;49.944;8.454;2023-08-30T04:27:17;6.10;;;5.18;;
5971;SDS011;3012;49.944;8.454;2023-08-30T04:29:45;6.45;;;4.43;;
5971;SDS011;3012;49.944;8.454;2023-08-30T04:32:14;5.80;;;4.97;;
5971;SDS011;3012;49.944;8.454;2023-08-30T04:34:43;5.15;;;4.75;;
5971;SDS011;3012;49.944;8.454;2023-08-30T04:37:11;9.65;;;5.55;;
5971;SDS011;3012;49.944;8.454;2023-08-30T04:39:40;5.28;;;4.88;;
5971;SDS011;3012;49.944;8.454;2023-08-30T04:42:08;5.35;;;4.82;;
5971;SDS011;3012;49.944;8.454;2023-08-30T04:44:36;4.97;;;4.60;;
5971;SDS011;3012;49.944;8.454;2023-08-30T04:47:04;6.68;;;4.80;;
5971;SDS011;3012;49.944;8.454;2023-08-30T04:49:32;5.10;;;4.60;;
5971;SDS011;3012;49.944;8.454;2023-08-30T04:52:01;8.57;;;4.60;;
5971;SDS011;3012;49.944;8.454;2023-08-30T04:54:29;4.78;;;4.38;;
5971;SDS011;3012;49.944;8.454;2023-08-30T04:56:57;6.68;;;5.57;;
5971;SDS011;3012;49.944;8.454;2023-08-30T04:59:25;5.25;;;4.53;;
5971;SDS011;3012;49.944;8.454;2023-08-30T05:01:53;7.68;;;4.32;;
5971;SDS011;3012;49.944;8.454;2023-08-30T05:04:21;4.90;;;4.50;;
5971;SDS011;3012;49.944;8.454;2023-08-30T05:06:49;8.75;;;4.85;;
5971;SDS011;3012;49.944;8.454;2023-08-30T05:09:18;4.97;;;4.75;;
5971;SDS011;3012;49.944;8.454;2023-08-30T05:11:49;4.60;;;4.18;;
5971;SDS011;3012;49.944;8.454;2023-08-30T05:14:17;5.40;;;4.90;;
5971;SDS011;3012;49.944;8.454;2023-08-30T05:16:45;5.03;;;4.65;;
5971;SDS011;3012;49.944;8.454;2023-08-30T05:19:17;5.30;;;4.90;;
5971;SDS011;3012;49.944;8.454;2023-08-30T05:21:45;5.75;;;5.20;;
5971;SDS011;3012;49.944;8.454;2023-08-30T05:24:18;7.25;;;5.57;;
5971;SDS011;3012;49.944;8.454;2023-08-30T05:26:46;6.00;;;5.35;;
5971;SDS011;3012;49.944;8.454;2023-08-30T05:29:14;7.70;;;5.65;;
5971;SDS011;3012;49.944;8.454;2023-08-30T05:31:42;5.88;;;5.32;;
5971;SDS011;3012;49.944;8.454;2023-08-30T05:34:11;6.13;;;5.63;;
5971;SDS011;3012;49.944;8.454;2023-08-30T05:36:39;8.32;;;5.18;;
5971;SDS011;3012;49.944;8.454;2023-08-30T05:39:07;7.43;;;6.20;;
5971;SDS011;3012;49.944;8.454;2023-08-30T05:41:36;7.57;;;6.20;;
5971;SDS011;3012;49.944;8.454;2023-08-30T05:44:04;6.00;;;5.50;;
5971;SDS011;3012;49.944;8.454;2023-08-30T05:46:33;9.52;;;5.65;;
5971;SDS011;3012;49.944;8.454;2023-08-30T05:49:01;6.43;;;5.90;;
5971;SDS011;3012;49.944;8.454;2023-08-30T05:51:29;8.77;;;6.07;;
5971;SDS011;3012;49.944;8.454;2023-08-30T05:53:58;9.90;;;6.55;;
5971;SDS011;3012;49.944;8.454;2023-08-30T05:56:26;6.50;;;6.05;;
5971;SDS011;3012;49.944;8.454;2023-08-30T05:58:55;9.45;;;6.18;;
5971;SDS011;3012;49.944;8.454;2023-08-30T06:01:23;8.27;;;5.78;;
5971;SDS011;3012;49.944;8.454;2023-08-30T06:03:52;5.90;;;5.45;;
5971;SDS011;3012;49.944;8.454;2023-08-30T06:06:20;6.45;;;5.95;;
5971;SDS011;3012;49.944;8.454;2023-08-30T06:08:48;6.15;;;5.60;;
5971;SDS011;3012;49.944;8.454;2023-08-30T06:11:16;5.90;;;5.40;;
5971;SDS011;3012;49.944;8.454;2023-08-30T06:13:44;11.77;;;5.75;;
5971;SDS011;3012;49.944;8.454;2023-08-30T06:16:14;7.93;;;6.25;;
5971;SDS011;3012;49.944;8.454;2023-08-30T06:18:42;8.27;;;5.90;;
5971;SDS011;3012;49.944;8.454;2023-08-30T06:21:10;6.40;;;6.00;;
5971;SDS011;3012;49.944;8.454;2023-08-30T06:23:38;6.25;;;5.68;;
5971;SDS011;3012;49.944;8.454;2023-08-30T06:26:06;10.15;;;5.82;;
5971;SDS011;3012;49.944;8.454;2023-08-30T06:28:34;7.50;;;6.88;;
5971;SDS011;3012;49.944;8.454;2023-08-30T06:31:04;6.32;;;5.40;;
5971;SDS011;3012;49.944;8.454;2023-08-30T06:33:33;7.82;;;7.15;;
5971;SDS011;3012;49.944;8.454;2023-08-30T06:36:02;6.22;;;5.72;;
5971;SDS011;3012;49.944;8.454;2023-08-30T06:38:31;7.93;;;7.20;;
5971;SDS011;3012;49.944;8.454;2023-08-30T06:41:00;7.97;;;7.22;;
5971;SDS011;3012;49.944;8.454;2023-08-30T06:43:28;7.95;;;7.07;;
5971;SDS011;3012;49.944;8.454;2023-08-30T06:45:57;8.65;;;7.85;;
5971;SDS011;3012;49.944;8.454;2023-08-30T06:48:25;9.40;;;7.78;;
5971;SDS011;3012;49.944;8.454;2023-08-30T06:50:58;7.95;;;7.18;;
5971;SDS011;3012;49.944;8.454;2023-08-30T06:53:26;8.45;;;7.53;;
5971;SDS011;3012;49.944;8.454;2023-08-30T06:55:58;12.45;;;7.72;;
5971;SDS011;3012;49.944;8.454;2023-08-30T06:58:26;10.75;;;7.90;;
5971;SDS011;3012;49.944;8.454;2023-08-30T07:00:56;11.30;;;10.13;;
5971;SDS011;3012;49.944;8.454;2023-08-30T07:03:25;10.77;;;9.00;;
5971;SDS011;3012;49.944;8.454;2023-08-30T07:05:53;10.43;;;7.85;;
5971;SDS011;3012;49.944;8.454;2023-08-30T07:08:23;8.13;;;7.43;;
5971;SDS011;3012;49.944;8.454;2023-08-30T07:10:51;8.18;;;7.38;;
5971;SDS011;3012;49.944;8.454;2023-08-30T07:13:19;8.43;;;7.63;;
5971;SDS011;3012;49.944;8.454;2023-08-30T07:15:47;8.75;;;7.18;;
5971;SDS011;3012;49.944;8.454;2023-08-30T07:18:15;7.95;;;7.15;;
5971;SDS011;3012;49.944;8.454;2023-08-30T07:20:43;8.85;;;8.15;;
5971;SDS011;3012;49.944;8.454;2023-08-30T07:23:11;8.85;;;7.50;;
5971;SDS011;3012;49.944;8.454;2023-08-30T07:25:41;11.27;;;7.80;;
5971;SDS011;3012;49.944;8.454;2023-08-30T07:28:09;6.60;;;6.00;;
5971;SDS011;3012;49.944;8.454;2023-08-30T07:30:38;9.05;;;7.70;;
5971;SDS011;3012;49.944;8.454;2023-08-30T07:33:06;8.27;;;7.60;;
5971;SDS011;3012;49.944;8.454;2023-08-30T07:35:34;8.60;;;7.90;;
5971;SDS011;3012;49.944;8.454;2023-08-30T07:38:02;10.38;;;8.10;;
5971;SDS011;3012;49.944;8.454;2023-08-30T07:40:30;7.55;;;6.95;;
5971;SDS011;3012;49.944;8.454;2023-08-30T07:43:00;8.75;;;7.95;;
5971;SDS011;3012;49.944;8.454;2023-08-30T07:45:28;8.65;;;7.85;;
5971;SDS011;3012;49.944;8.454;2023-08-30T07:47:56;7.65;;;6.95;;
5971;SDS011;3012;49.944;8.454;2023-08-30T07:50:24;8.77;;;8.05;;
5971;SDS011;3012;49.944;8.454;2023-08-30T07:52:53;11.00;;;8.00;;
5971;SDS011;3012;49.944;8.454;2023-08-30T07:55:21;7.82;;;7.13;;
5971;SDS011;3012;49.944;8.454;2023-08-30T07:57:48;8.00;;;7.25;;
5971;SDS011;3012;49.944;8.454;2023-08-30T08:00:18;12.55;;;8.25;;
5971;SDS011;3012;49.944;8.454;2023-08-30T08:02:46;7.75;;;7.15;;
5971;SDS011;3012;49.944;8.454;2023-08-30T08:05:14;7.55;;;6.78;;
5971;SDS011;3012;49.944;8.454;2023-08-30T08:07:43;7.43;;;6.82;;
5971;SDS011;3012;49.944;8.454;2023-08-30T08:10:11;8.32;;;6.60;;
5971;SDS011;3012;49.944;8.454;2023-08-30T08:12:39;11.57;;;9.25;;
5971;SDS011;3012;49.944;8.454;2023-08-30T08:15:07;13.90;;;8.90;;
5971;SDS011;3012;49.944;8.454;2023-08-30T08:17:37;7.30;;;6.60;;
5971;SDS011;3012;49.944;8.454;2023-08-30T08:20:05;7.07;;;5.65;;
5971;SDS011;3012;49.944;8.454;2023-08-30T08:22:34;6.00;;;5.50;;
5971;SDS011;3012;49.944;8.454;2023-08-30T08:25:02;6.50;;;5.90;;
5971;SDS011;3012;49.944;8.454;2023-08-30T08:27:31;5.43;;;5.03;;
5971;SDS011;3012;49.944;8.454;2023-08-30T08:29:59;6.65;;;6.00;;
5971;SDS011;3012;49.944;8.454;2023-08-30T08:32:27;7.25;;;6.55;;
5971;SDS011;3012;49.944;8.454;2023-08-30T08:34:58;6.50;;;5.90;;
5971;SDS011;3012;49.944;8.454;2023-08-30T08:37:26;10.60;;;6.43;;
5971;SDS011;3012;49.944;8.454;2023-08-30T08:39:54;10.60;;;7.25;;
5971;SDS011;3012;49.944;8.454;2023-08-30T08:42:22;6.60;;;5.97;;
5971;SDS011;3012;49.944;8.454;2023-08-30T08:44:51;7.07;;;6.40;;
5971;SDS011;3012;49.944;8.454;2023-08-30T08:47:20;10.52;;;7.13;;
5971;SDS011;3012;49.944;8.454;2023-08-30T08:49:50;7.25;;;6.60;;
5971;SDS011;3012;49.944;8.454;2023-08-30T08:52:19;8.15;;;7.20;;
5971;SDS011;3012;49.944;8.454;2023-08-30T08:54:59;7.10;;;6.50;;
5971;SDS011;3012;49.944;8.454;2023-08-30T08:57:29;10.18;;;8.15;;
5971;SDS011;3012;49.944;8.454;2023-08-30T08:59:58;8.13;;;6.60;;
5971;SDS011;3012;49.944;8.454;2023-08-30T09:02:26;7.38;;;6.68;;
5971;SDS011;3012;49.944;8.454;2023-08-30T09:04:55;8.57;;;6.55;;
5971;SDS011;3012;49.944;8.454;2023-08-30T09:07:27;6.70;;;6.13;;
5971;SDS011;3012;49.944;8.454;2023-08-30T09:09:56;7.57;;;6.88;;
5971;SDS011;3012;49.944;8.454;2023-08-30T09:12:25;8.05;;;7.25;;
5971;SDS011;3012;49.944;8.454;2023-08-30T09:14:53;7.63;;;5.70;;
5971;SDS011;3012;49.944;8.454;2023-08-30T09:17:34;7.00;;;6.50;;
5971;SDS011;3012;49.944;8.454;2023-08-30T09:20:06;7.43;;;6.75;;
5971;SDS011;3012;49.944;8.454;2023-08-30T09:22:37;7.45;;;6.65;;
5971;SDS011;3012;49.944;8.454;2023-08-30T09:25:06;8.15;;;7.43;;
5971;SDS011;3012;49.944;8.454;2023-08-30T09:27:37;7.47;;;6.35;;
5971;SDS011;3012;49.944;8.454;2023-08-30T09:30:08;6.43;;;5.88;;
5971;SDS011;3012;49.944;8.454;2023-08-30T09:32:40;7.93;;;5.95;;
5971;SDS011;3012;49.944;8.454;2023-08-30T09:35:09;6.47;;;6.03;;
5971;SDS011;3012;49.944;8.454;2023-08-30T09:37:39;6.63;;;5.90;;
5971;SDS011;3012;49.944;8.454;2023-08-30T09:40:07;8.25;;;6.32;;
5971;SDS011;3012;49.944;8.454;2023-08-30T09:42:40;7.05;;;5.63;;
5971;SDS011;3012;49.944;8.454;2023-08-30T09:45:17;5.75;;;5.35;;
5971;SDS011;3012;49.944;8.454;2023-08-30T09:47:47;8.82;;;6.68;;
5971;SDS011;3012;49.944;8.454;2023-08-30T09:50:16;6.43;;;5.75;;
5971;SDS011;3012;49.944;8.454;2023-08-30T09:52:47;6.13;;;5.72;;
5971;SDS011;3012;49.944;8.454;2023-08-30T09:55:18;5.88;;;5.47;;
5971;SDS011;3012;49.944;8.454;2023-08-30T09:57:48;5.65;;;5.18;;
5971;SDS011;3012;49.944;8.454;2023-08-30T10:00:17;4.60;;;4.20;;
5971;SDS011;3012;49.944;8.454;2023-08-30T10:02:45;6.35;;;5.72;;
5971;SDS011;3012;49.944;8.454;2023-08-30T10:05:34;5.13;;;4.78;;
5971;SDS011;3012;49.944;8.454;2023-08-30T10:08:05;5.50;;;5.00;;
5971;SDS011;3012;49.944;8.454;2023-08-30T10:10:35;4.80;;;4.45;;
5971;SDS011;3012;49.944;8.454;2023-08-30T10:13:05;20.67;;;14.15;;
5971;SDS011;3012;49.944;8.454;2023-08-30T10:15:38;11.93;;;10.48;;
5971;SDS011;3012;49.944;8.454;2023-08-30T10:18:09;5.82;;;5.25;;
5971;SDS011;3012;49.944;8.454;2023-08-30T10:20:42;6.07;;;4.88;;
5971;SDS011;3012;49.944;8.454;2023-08-30T10:23:13;5.88;;;4.25;;
5971;SDS011;3012;49.944;8.454;2023-08-30T10:25:43;5.32;;;3.92;;
5971;SDS011;3012;49.944;8.454;2023-08-30T10:28:14;4.35;;;4.05;;
5971;SDS011;3012;49.944;8.454;2023-08-30T10:30:43;4.30;;;4.03;;
5971;SDS011;3012;49.944;8.454;2023-08-30T10:33:11;4.68;;;4.32;;
5971;SDS011;3012;49.944;8.454;2023-08-30T10:35:46;5.43;;;4.53;;
5971;SDS011;3012;49.944;8.454;2023-08-30T10:38:25;3.97;;;3.67;;
5971;SDS011;3012;49.944;8.454;2023-08-30T10:40:54;3.40;;;3.10;;
5971;SDS011;3012;49.944;8.454;2023-08-30T10:43:29;2.17;;;2.03;;
5971;SDS011;3012;49.944;8.454;2023-08-30T10:46:01;3.78;;;2.85;;
5971;SDS011;3012;49.944;8.454;2023-08-30T10:48:34;3.83;;;3.67;;
5971;SDS011;3012;49.944;8.454;2023-08-30T10:51:03;5.40;;;2.55;;
5971;SDS011;3012;49.944;8.454;2023-08-30T10:53:35;2.88;;;2.63;;
5971;SDS011;3012;49.944;8.454;2023-08-30T10:56:07;2.75;;;2.65;;
5971;SDS011;3012;49.944;8.454;2023-08-30T10:58:43;2.88;;;2.10;;
5971;SDS011;3012;49.944;8.454;2023-08-30T11:01:11;3.63;;;2.55;;
5971;SDS011;3012;49.944;8.454;2023-08-30T11:03:41;2.63;;;2.53;;
5971;SDS011;3012;49.944;8.454;2023-08-30T11:06:13;2.60;;;2.50;;
5971;SDS011;3012;49.944;8.454;2023-08-30T11:08:44;5.70;;;2.08;;
5971;SDS011;3012;49.944;8.454;2023-08-30T11:11:12;2.33;;;2.13;;
5971;SDS011;3012;49.944;8.454;2023-08-30T11:13:41;2.78;;;2.58;;
5971;SDS011;3012;49.944;8.454;2023-08-30T11:16:09;2.85;;;2.47;;
5971;SDS011;3012;49.944;8.454;2023-08-30T11:18:38;3.60;;;2.08;;
5971;SDS011;3012;49.944;8.454;2023-08-30T11:21:08;2.92;;;2.25;;
5971;SDS011;3012;49.944;8.454;2023-08-30T11:23:39;2.88;;;2.67;;
5971;SDS011;3012;49.944;8.454;2023-08-30T11:26:08;3.08;;;2.72;;
5971;SDS011;3012;49.944;8.454;2023-08-30T11:28:39;2.40;;;2.30;;
5971;SDS011;3012;49.944;8.454;2023-08-30T11:31:17;3.10;;;1.77;;
5971;SDS011;3012;49.944;8.454;2023-08-30T11:33:50;3.10;;;2.75;;
5971;SDS011;3012;49.944;8.454;2023-08-30T11:36:20;2.38;;;2.05;;
5971;SDS011;3012;49.944;8.454;2023-08-30T11:38:48;3.80;;;2.78;;
5971;SDS011;3012;49.944;8.454;2023-08-30T11:41:18;2.10;;;2.10;;
5971;SDS011;3012;49.944;8.454;2023-08-30T11:43:49;3.97;;;2.25;;
5971;SDS011;3012;49.944;8.454;2023-08-30T11:46:17;4.90;;;2.50;;
5971;SDS011;3012;49.944;8.454;2023-08-30T11:48:47;2.53;;;2.42;;
5971;SDS011;3012;49.944;8.454;2023-08-30T11:51:16;2.60;;;2.40;;
5971;SDS011;3012;49.944;8.454;2023-08-30T11:53:46;2.50;;;2.28;;
5971;SDS011;3012;49.944;8.454;2023-08-30T11:56:14;2.90;;;2.80;;
5971;SDS011;3012;49.944;8.454;2023-08-30T11:58:44;4.18;;;2.70;;
5971;SDS011;3012;49.944;8.454;2023-08-30T12:01:12;2.30;;;2.15;;
5971;SDS011;3012;49.944;8.454;2023-08-30T12:03:41;2.97;;;2.70;;
5971;SDS011;3012;49.944;8.454;2023-08-30T12:06:09;7.03;;;2.45;;
5971;SDS011;3012;49.944;8.454;2023-08-30T12:08:38;2.80;;;2.15;;
5971;SDS011;3012;49.944;8.454;2023-08-30T12:11:16;2.28;;;2.03;;
5971;SDS011;3012;49.944;8.454;2023-08-30T12:13:46;1.75;;;1.65;;
5971;SDS011;3012;49.944;8.454;2023-08-30T12:16:15;4.45;;;2.38;;
5971;SDS011;3012;49.944;8.454;2023-08-30T12:18:44;2.97;;;2.45;;
5971;SDS011;3012;49.944;8.454;2023-08-30T12:21:13;5.88;;;5.30;;
5971;SDS011;3012;49.944;8.454;2023-08-30T12:23:41;2.47;;;2.38;;
5971;SDS011;3012;49.944;8.454;2023-08-30T12:26:10;2.10;;;2.00;;
5971;SDS011;3012;49.944;8.454;2023-08-30T12:28:39;1.30;;;1.30;;
5971;SDS011;3012;49.944;8.454;2023-08-30T12:31:12;2.60;;;1.45;;
5971;SDS011;3012;49.944;8.454;2023-08-30T12:33:41;2.55;;;2.45;;
5971;SDS011;3012;49.944;8.454;2023-08-30T12:36:09;3.97;;;1.98;;
5971;SDS011;3012;49.944;8.454;2023-08-30T12:38:37;1.88;;;1.77;;
5971;SDS011;3012;49.944;8.454;2023-08-30T12:41:05;2.10;;;1.98;;
5971;SDS011;3012;49.944;8.454;2023-08-30T12:43:33;2.20;;;2.10;;
5971;SDS011;3012;49.944;8.454;2023-08-30T12:46:01;3.00;;;1.63;;
5971;SDS011;3012;49.944;8.454;2023-08-30T12:48:32;1.60;;;1.60;;
5971;SDS011;3012;49.944;8.454;2023-08-30T12:51:01;2.00;;;1.90;;
5971;SDS011;3012;49.944;8.454;2023-08-30T12:53:30;1.85;;;1.80;;
5971;SDS011;3012;49.944;8.454;2023-08-30T12:55:58;2.05;;;1.65;;
5971;SDS011;3012;49.944;8.454;2023-08-30T12:58:26;2.97;;;1.90;;
5971;SDS011;3012;49.944;8.454;2023-08-30T13:00:54;4.20;;;2.17;;
5971;SDS011;3012;49.944;8.454;2023-08-30T13:03:22;4.75;;;1.83;;
5971;SDS011;3012;49.944;8.454;2023-08-30T13:05:52;2.00;;;2.00;;
5971;SDS011;3012;49.944;8.454;2023-08-30T13:08:20;1.92;;;1.73;;
5971;SDS011;3012;49.944;8.454;2023-08-30T13:10:48;4.75;;;2.53;;
5971;SDS011;3012;49.944;8.454;2023-08-30T13:13:16;1.77;;;1.70;;
5971;SDS011;3012;49.944;8.454;2023-08-30T13:15:44;2.33;;;2.13;;
5971;SDS011;3012;49.944;8.454;2023-08-30T13:18:12;2.10;;;1.42;;
5971;SDS011;3012;49.944;8.454;2023-08-30T13:20:42;2.50;;;1.92;;
5971;SDS011;3012;49.944;8.454;2023-08-30T13:23:12;6.45;;;1.92;;
5971;SDS011;3012;49.944;8.454;2023-08-30T13:25:40;1.98;;;1.70;;
5971;SDS011;3012;49.944;8.454;2023-08-30T13:28:08;2.53;;;2.42;;
5971;SDS011;3012;49.944;8.454;2023-08-30T13:30:36;2.28;;;2.08;;
5971;SDS011;3012;49.944;8.454;2023-08-30T13:33:10;3.00;;;2.25;;
5971;SDS011;3012;49.944;8.454;2023-08-30T13:35:39;2.00;;;1.83;;
5971;SDS011;3012;49.944;8.454;2023-08-30T13:38:07;2.25;;;1.83;;
5971;SDS011;3012;49.944;8.454;2023-08-30T13:40:37;1.80;;;1.65;;
5971;SDS011;3012;49.944;8.454;2023-08-30T13:43:05;1.65;;;1.55;;
5971;SDS011;3012;49.944;8.454;2023-08-30T13:45:34;3.13;;;1.80;;
5971;SDS011;3012;49.944;8.454;2023-08-30T13:48:03;2.47;;;2.28;;
5971;SDS011;3012;49.944;8.454;2023-08-30T13:50:31;2.38;;;2.08;;
5971;SDS011;3012;49.944;8.454;2023-08-30T13:52:59;2.33;;;2.10;;
5971;SDS011;3012;49.944;8.454;2023-08-30T13:55:28;1.75;;;1.65;;
5971;SDS011;3012;49.944;8.454;2023-08-30T13:57:58;1.65;;;1.40;;
5971;SDS011;3012;49.944;8.454;2023-08-30T14:00:26;1.67;;;1.60;;
5971;SDS011;3012;49.944;8.454;2023-08-30T14:02:54;1.80;;;1.70;;
5971;SDS011;3012;49.944;8.454;2023-08-30T14:05:23;1.90;;;1.80;;
5971;SDS011;3012;49.944;8.454;2023-08-30T14:07:51;1.50;;;1.50;;
5971;SDS011;3012;49.944;8.454;2023-08-30T14:10:19;3.50;;;1.95;;
5971;SDS011;3012;49.944;8.454;2023-08-30T14:12:48;2.40;;;1.85;;
5971;SDS011;3012;49.944;8.454;2023-08-30T14:15:18;2.38;;;1.75;;
5971;SDS011;3012;49.944;8.454;2023-08-30T14:17:46;5.97;;;1.95;;
5971;SDS011;3012;49.944;8.454;2023-08-30T14:20:14;2.45;;;1.92;;
5971;SDS011;3012;49.944;8.454;2023-08-30T14:22:42;3.35;;;2.22;;
5971;SDS011;3012;49.944;8.454;2023-08-30T14:25:10;1.92;;;1.90;;
5971;SDS011;3012;49.944;8.454;2023-08-30T14:27:39;2.38;;;2.17;;
5971;SDS011;3012;49.944;8.454;2023-08-30T14:30:07;1.58;;;1.50;;
5971;SDS011;3012;49.944;8.454;2023-08-30T14:32:37;2.42;;;2.33;;
5971;SDS011;3012;49.944;8.454;2023-08-30T14:35:05;2.20;;;2.10;;
5971;SDS011;3012;49.944;8.454;2023-08-30T14:37:34;4.68;;;2.05;;
5971;SDS011;3012;49.944;8.454;2023-08-30T14:40:04;3.88;;;2.03;;
5971;SDS011;3012;49.944;8.454;2023-08-30T14:42:33;4.00;;;2.53;;
5971;SDS011;3012;49.944;8.454;2023-08-30T14:45:01;2.50;;;2.30;;
5971;SDS011;3012;49.944;8.454;2023-08-30T14:47:30;1.85;;;1.70;;
5971;SDS011;3012;49.944;8.454;2023-08-30T14:50:01;3.70;;;1.85;;
5971;SDS011;3012;49.944;8.454;2023-08-30T14:52:29;2.97;;;1.95;;
5971;SDS011;3012;49.944;8.454;2023-08-30T14:54:58;1.90;;;1.80;;
5971;SDS011;3012;49.944;8.454;2023-08-30T14:57:26;2.22;;;2.03;;
5971;SDS011;3012;49.944;8.454;2023-08-30T14:59:54;5.95;;;2.00;;
5971;SDS011;3012;49.944;8.454;2023-08-30T15:02:22;34.92;;;24.65;;
5971;SDS011;3012;49.944;8.454;2023-08-30T15:04:50;4.53;;;4.13;;
5971;SDS011;3012;49.944;8.454;2023-08-30T15:07:19;4.07;;;2.35;;
5971;SDS011;3012;49.944;8.454;2023-08-30T15:09:47;1.98;;;1.88;;
5971;SDS011;3012;49.944;8.454;2023-08-30T15:12:16;1.55;;;1.55;;
5971;SDS011;3012;49.944;8.454;2023-08-30T15:14:44;1.55;;;1.55;;
5971;SDS011;3012;49.944;8.454;2023-08-30T15:17:13;1.90;;;1.80;;
5971;SDS011;3012;49.944;8.454;2023-08-30T15:19:42;3.03;;;1.77;;
5971;SDS011;3012;49.944;8.454;2023-08-30T15:22:10;1.40;;;1.40;;
5971;SDS011;3012;49.944;8.454;2023-08-30T15:24:39;1.55;;;1.45;;
5971;SDS011;3012;49.944;8.454;2023-08-30T15:27:07;3.08;;;1.70;;